< < Back
Terminal Aerodrome Forecast


Current Version              Previous Versions:   1  2  3  4  5  6  7  8  9  

Terminal Aerodrome Forecast

644
FTUS44 KBMX 021734
TAFMGM
TAF
KMGM 021734Z 0218/0318 25010G17KT P6SM SCT040 BKN150
     FM022000 25010KT P6SM VCTS BKN040CB
     FM030000 22010KT P6SM SCT025 BKN200
     FM030600 23010G17KT P6SM BKN030=



Latest METAR

967
SAUS80 KWBC 030800 RRB
MTRMGM
METAR KMGM 030753Z 22007KT 10SM CLR 27/23 A2999 RMK AO2 SLP153
T02670228


USA.gov is the U.S. government's official web portal to all federal, state and local government web resources and services.